sensor_id;sensor_type;location;lat;lon;timestamp;temperature;humidity
49901;DHT22;35789;48.414;12.768;2023-08-24T00:00:00;19.1;99.9
49901;DHT22;35789;48.414;12.768;2023-08-24T00:05:00;19.1;99.9
49901;DHT22;35789;48.414;12.768;2023-08-24T00:10:00;19.1;99.9
49901;DHT22;35789;48.414;12.768;2023-08-24T00:15:00;18.9;99.9
49901;DHT22;35789;48.414;12.768;2023-08-24T00:20:00;18.8;99.9
49901;DHT22;35789;48.414;12.768;2023-08-24T00:25:00;18.8;99.9
49901;DHT22;35789;48.414;12.768;2023-08-24T00:30:01;18.8;99.9
49901;DHT22;35789;48.414;12.768;2023-08-24T00:35:00;18.7;99.9
49901;DHT22;35789;48.414;12.768;2023-08-24T00:40:00;18.6;99.9
49901;DHT22;35789;48.414;12.768;2023-08-24T00:45:00;18.6;99.9
49901;DHT22;35789;48.414;12.768;2023-08-24T00:50:00;18.7;99.9
49901;DHT22;35789;48.414;12.768;2023-08-24T00:55:00;18.6;99.9
49901;DHT22;35789;48.414;12.768;2023-08-24T01:00:02;18.6;99.9
49901;DHT22;35789;48.414;12.768;2023-08-24T01:05:00;18.5;99.9
49901;DHT22;35789;48.414;12.768;2023-08-24T01:10:00;18.5;99.9
49901;DHT22;35789;48.414;12.768;2023-08-24T01:15:03;18.4;99.9
49901;DHT22;35789;48.414;12.768;2023-08-24T01:20:01;18.4;99.9
49901;DHT22;35789;48.414;12.768;2023-08-24T01:25:03;18.4;99.9
49901;DHT22;35789;48.414;12.768;2023-08-24T01:30:00;18.3;99.9
49901;DHT22;35789;48.414;12.768;2023-08-24T01:35:00;18.3;99.9
49901;DHT22;35789;48.414;12.768;2023-08-24T01:40:02;18.2;99.9
49901;DHT22;35789;48.414;12.768;2023-08-24T01:45:00;18.2;99.9
49901;DHT22;35789;48.414;12.768;2023-08-24T01:50:00;18.2;99.9
49901;DHT22;35789;48.414;12.768;2023-08-24T01:55:00;18.2;99.9
49901;DHT22;35789;48.414;12.768;2023-08-24T02:00:00;18.2;99.9
49901;DHT22;35789;48.414;12.768;2023-08-24T02:05:00;18.1;99.9
49901;DHT22;35789;48.414;12.768;2023-08-24T02:10:00;18.1;99.9
49901;DHT22;35789;48.414;12.768;2023-08-24T02:15:00;18.1;99.9
49901;DHT22;35789;48.414;12.768;2023-08-24T02:20:00;18.2;99.9
49901;DHT22;35789;48.414;12.768;2023-08-24T02:25:00;18.2;99.9
49901;DHT22;35789;48.414;12.768;2023-08-24T02:30:00;18.2;99.9
49901;DHT22;35789;48.414;12.768;2023-08-24T02:35:00;18.2;99.9
49901;DHT22;35789;48.414;12.768;2023-08-24T02:40:00;18.2;99.9
49901;DHT22;35789;48.414;12.768;2023-08-24T02:45:00;18.1;99.9
49901;DHT22;35789;48.414;12.768;2023-08-24T02:50:00;18.1;99.9
49901;DHT22;35789;48.414;12.768;2023-08-24T02:55:00;18.1;99.9
49901;DHT22;35789;48.414;12.768;2023-08-24T03:00:00;18.0;99.9
49901;DHT22;35789;48.414;12.768;2023-08-24T03:05:00;18.1;99.9
49901;DHT22;35789;48.414;12.768;2023-08-24T03:10:00;18.1;99.9
49901;DHT22;35789;48.414;12.768;2023-08-24T03:15:00;18.0;99.9
49901;DHT22;35789;48.414;12.768;2023-08-24T03:20:00;18.0;99.9
49901;DHT22;35789;48.414;12.768;2023-08-24T03:25:00;18.0;99.9
49901;DHT22;35789;48.414;12.768;2023-08-24T03:30:00;17.9;99.9
49901;DHT22;35789;48.414;12.768;2023-08-24T03:35:00;17.9;99.9
49901;DHT22;35789;48.414;12.768;2023-08-24T03:40:00;17.8;99.9
49901;DHT22;35789;48.414;12.768;2023-08-24T03:45:00;17.7;99.9
49901;DHT22;35789;48.414;12.768;2023-08-24T03:50:00;17.7;99.9
49901;DHT22;35789;48.414;12.768;2023-08-24T03:55:00;17.7;99.9
49901;DHT22;35789;48.414;12.768;2023-08-24T04:00:00;17.6;99.9
49901;DHT22;35789;48.414;12.768;2023-08-24T04:05:00;17.6;99.9
49901;DHT22;35789;48.414;12.768;2023-08-24T04:10:00;17.5;99.9
49901;DHT22;35789;48.414;12.768;2023-08-24T04:15:00;17.5;99.9
49901;DHT22;35789;48.414;12.768;2023-08-24T04:20:00;17.5;99.9
49901;DHT22;35789;48.414;12.768;2023-08-24T04:25:00;17.5;99.9
49901;DHT22;35789;48.414;12.768;2023-08-24T04:30:00;17.4;99.9
49901;DHT22;35789;48.414;12.768;2023-08-24T04:35:00;17.4;99.9
49901;DHT22;35789;48.414;12.768;2023-08-24T04:40:00;17.5;99.9
49901;DHT22;35789;48.414;12.768;2023-08-24T04:45:00;17.4;99.9
49901;DHT22;35789;48.414;12.768;2023-08-24T04:50:00;17.5;99.9
49901;DHT22;35789;48.414;12.768;2023-08-24T04:55:00;17.6;99.9
49901;DHT22;35789;48.414;12.768;2023-08-24T05:00:00;17.5;99.9
49901;DHT22;35789;48.414;12.768;2023-08-24T05:05:00;17.6;99.9
49901;DHT22;35789;48.414;12.768;2023-08-24T05:10:00;17.6;99.9
49901;DHT22;35789;48.414;12.768;2023-08-24T05:15:00;17.6;99.9
49901;DHT22;35789;48.414;12.768;2023-08-24T05:20:00;17.7;99.9
49901;DHT22;35789;48.414;12.768;2023-08-24T05:25:00;17.8;99.9
49901;DHT22;35789;48.414;12.768;2023-08-24T05:30:00;17.8;99.9
49901;DHT22;35789;48.414;12.768;2023-08-24T05:35:00;17.9;99.9
49901;DHT22;35789;48.414;12.768;2023-08-24T05:40:00;18.0;99.9
49901;DHT22;35789;48.414;12.768;2023-08-24T05:45:00;18.0;99.9
49901;DHT22;35789;48.414;12.768;2023-08-24T05:50:00;18.1;99.9
49901;DHT22;35789;48.414;12.768;2023-08-24T05:55:00;18.2;99.9
49901;DHT22;35789;48.414;12.768;2023-08-24T06:00:00;18.3;99.9
49901;DHT22;35789;48.414;12.768;2023-08-24T06:05:00;18.4;99.9
49901;DHT22;35789;48.414;12.768;2023-08-24T06:10:00;18.4;99.9
49901;DHT22;35789;48.414;12.768;2023-08-24T06:15:00;18.6;99.9
49901;DHT22;35789;48.414;12.768;2023-08-24T06:20:00;18.7;99.9
49901;DHT22;35789;48.414;12.768;2023-08-24T06:25:00;18.7;99.9
49901;DHT22;35789;48.414;12.768;2023-08-24T06:30:00;18.9;99.9
49901;DHT22;35789;48.414;12.768;2023-08-24T06:35:00;19.0;99.9
49901;DHT22;35789;48.414;12.768;2023-08-24T06:40:00;19.1;99.9
49901;DHT22;35789;48.414;12.768;2023-08-24T06:45:00;19.2;99.9
49901;DHT22;35789;48.414;12.768;2023-08-24T06:50:00;19.3;99.9
49901;DHT22;35789;48.414;12.768;2023-08-24T06:55:00;19.4;99.9
49901;DHT22;35789;48.414;12.768;2023-08-24T07:00:00;19.6;99.9
49901;DHT22;35789;48.414;12.768;2023-08-24T07:05:00;19.8;99.9
49901;DHT22;35789;48.414;12.768;2023-08-24T07:10:00;19.8;99.9
49901;DHT22;35789;48.414;12.768;2023-08-24T07:15:00;19.9;99.9
49901;DHT22;35789;48.414;12.768;2023-08-24T07:20:00;19.9;99.9
49901;DHT22;35789;48.414;12.768;2023-08-24T07:25:00;20.2;99.9
49901;DHT22;35789;48.414;12.768;2023-08-24T07:30:00;20.3;99.9
49901;DHT22;35789;48.414;12.768;2023-08-24T07:35:00;20.3;99.9
49901;DHT22;35789;48.414;12.768;2023-08-24T07:40:00;20.4;99.9
49901;DHT22;35789;48.414;12.768;2023-08-24T07:45:00;20.8;99.9
49901;DHT22;35789;48.414;12.768;2023-08-24T07:50:00;20.9;99.9
49901;DHT22;35789;48.414;12.768;2023-08-24T07:55:00;21.1;99.9
49901;DHT22;35789;48.414;12.768;2023-08-24T08:00:00;21.4;99.9
49901;DHT22;35789;48.414;12.768;2023-08-24T08:05:00;21.3;99.9
49901;DHT22;35789;48.414;12.768;2023-08-24T08:10:00;21.3;99.9
49901;DHT22;35789;48.414;12.768;2023-08-24T08:15:00;21.5;99.9
49901;DHT22;35789;48.414;12.768;2023-08-24T08:20:00;21.6;99.9
49901;DHT22;35789;48.414;12.768;2023-08-24T08:25:00;21.9;99.9
49901;DHT22;35789;48.414;12.768;2023-08-24T08:30:00;22.4;99.9
49901;DHT22;35789;48.414;12.768;2023-08-24T08:35:00;22.7;99.9
49901;DHT22;35789;48.414;12.768;2023-08-24T08:40:00;22.9;99.9
49901;DHT22;35789;48.414;12.768;2023-08-24T08:45:00;22.9;99.9
49901;DHT22;35789;48.414;12.768;2023-08-24T08:50:00;23.1;99.9
49901;DHT22;35789;48.414;12.768;2023-08-24T08:55:00;23.6;99.9
49901;DHT22;35789;48.414;12.768;2023-08-24T09:00:00;23.9;99.9
49901;DHT22;35789;48.414;12.768;2023-08-24T09:05:00;24.2;99.9
49901;DHT22;35789;48.414;12.768;2023-08-24T09:10:00;24.1;99.9
49901;DHT22;35789;48.414;12.768;2023-08-24T09:15:02;24.1;99.9
49901;DHT22;35789;48.414;12.768;2023-08-24T09:20:05;24.5;99.6
49901;DHT22;35789;48.414;12.768;2023-08-24T09:25:00;24.4;99.5
49901;DHT22;35789;48.414;12.768;2023-08-24T09:30:00;24.7;99.6
49901;DHT22;35789;48.414;12.768;2023-08-24T09:35:02;24.7;99.6
49901;DHT22;35789;48.414;12.768;2023-08-24T09:40:01;25.0;99.7
49901;DHT22;35789;48.414;12.768;2023-08-24T09:45:02;24.9;97.5
49901;DHT22;35789;48.414;12.768;2023-08-24T09:50:00;25.0;99.1
49901;DHT22;35789;48.414;12.768;2023-08-24T09:55:02;25.1;98.2
49901;DHT22;35789;48.414;12.768;2023-08-24T10:00:00;25.0;98.6
49901;DHT22;35789;48.414;12.768;2023-08-24T10:05:00;25.5;99.0
49901;DHT22;35789;48.414;12.768;2023-08-24T10:10:02;25.5;98.8
49901;DHT22;35789;48.414;12.768;2023-08-24T10:15:00;25.7;98.2
49901;DHT22;35789;48.414;12.768;2023-08-24T10:20:00;26.0;99.9
49901;DHT22;35789;48.414;12.768;2023-08-24T10:25:00;26.0;99.4
49901;DHT22;35789;48.414;12.768;2023-08-24T10:30:00;26.0;99.2
49901;DHT22;35789;48.414;12.768;2023-08-24T10:35:00;26.1;97.6
49901;DHT22;35789;48.414;12.768;2023-08-24T10:40:00;26.2;98.6
49901;DHT22;35789;48.414;12.768;2023-08-24T10:45:00;26.2;98.1
49901;DHT22;35789;48.414;12.768;2023-08-24T10:50:00;26.6;99.7
49901;DHT22;35789;48.414;12.768;2023-08-24T10:55:01;26.8;99.5
49901;DHT22;35789;48.414;12.768;2023-08-24T11:00:02;26.8;98.2
49901;DHT22;35789;48.414;12.768;2023-08-24T11:05:03;26.8;99.1
49901;DHT22;35789;48.414;12.768;2023-08-24T11:10:10;26.9;99.9
49901;DHT22;35789;48.414;12.768;2023-08-24T11:15:00;27.0;96.0
49901;DHT22;35789;48.414;12.768;2023-08-24T11:20:00;27.2;95.8
49901;DHT22;35789;48.414;12.768;2023-08-24T11:25:00;27.4;97.0
49901;DHT22;35789;48.414;12.768;2023-08-24T11:30:00;27.3;96.8
49901;DHT22;35789;48.414;12.768;2023-08-24T11:35:00;27.2;97.1
49901;DHT22;35789;48.414;12.768;2023-08-24T11:40:00;27.4;97.0
49901;DHT22;35789;48.414;12.768;2023-08-24T11:45:00;27.5;96.7
49901;DHT22;35789;48.414;12.768;2023-08-24T11:50:00;27.6;95.6
49901;DHT22;35789;48.414;12.768;2023-08-24T11:55:00;27.6;96.2
49901;DHT22;35789;48.414;12.768;2023-08-24T12:00:00;27.7;97.0
49901;DHT22;35789;48.414;12.768;2023-08-24T12:05:00;27.7;95.3
49901;DHT22;35789;48.414;12.768;2023-08-24T12:10:00;27.8;95.3
49901;DHT22;35789;48.414;12.768;2023-08-24T12:15:00;28.0;96.0
49901;DHT22;35789;48.414;12.768;2023-08-24T12:20:00;28.0;94.7
49901;DHT22;35789;48.414;12.768;2023-08-24T12:25:00;28.1;95.5
49901;DHT22;35789;48.414;12.768;2023-08-24T12:30:00;28.2;96.1
49901;DHT22;35789;48.414;12.768;2023-08-24T12:35:00;28.2;94.3
49901;DHT22;35789;48.414;12.768;2023-08-24T12:40:00;27.9;95.9
49901;DHT22;35789;48.414;12.768;2023-08-24T12:45:00;27.9;95.7
49901;DHT22;35789;48.414;12.768;2023-08-24T12:50:00;28.0;97.0
49901;DHT22;35789;48.414;12.768;2023-08-24T12:55:00;28.2;96.4
49901;DHT22;35789;48.414;12.768;2023-08-24T13:00:00;28.1;97.0
49901;DHT22;35789;48.414;12.768;2023-08-24T13:05:00;28.2;96.9
49901;DHT22;35789;48.414;12.768;2023-08-24T13:10:00;28.2;96.2
49901;DHT22;35789;48.414;12.768;2023-08-24T13:15:00;28.3;97.0
49901;DHT22;35789;48.414;12.768;2023-08-24T13:20:00;28.4;97.4
49901;DHT22;35789;48.414;12.768;2023-08-24T13:25:00;28.3;96.4
49901;DHT22;35789;48.414;12.768;2023-08-24T13:30:00;28.4;95.8
49901;DHT22;35789;48.414;12.768;2023-08-24T13:35:00;28.3;96.1
49901;DHT22;35789;48.414;12.768;2023-08-24T13:40:00;28.3;96.0
49901;DHT22;35789;48.414;12.768;2023-08-24T13:45:00;28.3;95.9
49901;DHT22;35789;48.414;12.768;2023-08-24T13:50:00;28.3;96.1
49901;DHT22;35789;48.414;12.768;2023-08-24T13:55:00;28.2;96.7
49901;DHT22;35789;48.414;12.768;2023-08-24T14:00:00;28.1;96.2
49901;DHT22;35789;48.414;12.768;2023-08-24T14:05:00;28.1;96.5
49901;DHT22;35789;48.414;12.768;2023-08-24T14:10:00;28.1;96.2
49901;DHT22;35789;48.414;12.768;2023-08-24T14:15:00;28.0;96.1
49901;DHT22;35789;48.414;12.768;2023-08-24T14:20:00;28.0;96.7
49901;DHT22;35789;48.414;12.768;2023-08-24T14:25:00;27.9;96.6
49901;DHT22;35789;48.414;12.768;2023-08-24T14:30:00;27.9;96.1
49901;DHT22;35789;48.414;12.768;2023-08-24T14:35:00;27.9;96.4
49901;DHT22;35789;48.414;12.768;2023-08-24T14:40:00;28.1;96.0
49901;DHT22;35789;48.414;12.768;2023-08-24T14:45:00;27.9;96.0
49901;DHT22;35789;48.414;12.768;2023-08-24T14:50:00;28.1;95.8
49901;DHT22;35789;48.414;12.768;2023-08-24T14:55:00;28.1;96.5
49901;DHT22;35789;48.414;12.768;2023-08-24T15:00:00;28.0;96.8
49901;DHT22;35789;48.414;12.768;2023-08-24T15:05:00;27.8;97.3
49901;DHT22;35789;48.414;12.768;2023-08-24T15:10:00;27.7;97.3
49901;DHT22;35789;48.414;12.768;2023-08-24T15:15:00;27.6;97.5
49901;DHT22;35789;48.414;12.768;2023-08-24T15:20:00;27.5;97.6
49901;DHT22;35789;48.414;12.768;2023-08-24T15:25:00;27.7;98.1
49901;DHT22;35789;48.414;12.768;2023-08-24T15:30:00;27.7;98.0
49901;DHT22;35789;48.414;12.768;2023-08-24T15:35:00;27.7;97.8
49901;DHT22;35789;48.414;12.768;2023-08-24T15:40:00;27.8;97.4
49901;DHT22;35789;48.414;12.768;2023-08-24T15:45:00;27.6;97.5
49901;DHT22;35789;48.414;12.768;2023-08-24T15:50:00;27.6;98.0
49901;DHT22;35789;48.414;12.768;2023-08-24T15:55:00;27.4;98.4
49901;DHT22;35789;48.414;12.768;2023-08-24T16:00:00;27.3;97.8
49901;DHT22;35789;48.414;12.768;2023-08-24T16:05:00;27.2;98.2
49901;DHT22;35789;48.414;12.768;2023-08-24T16:10:00;27.1;98.1
49901;DHT22;35789;48.414;12.768;2023-08-24T16:15:00;27.3;98.1
49901;DHT22;35789;48.414;12.768;2023-08-24T16:20:01;27.4;97.7
49901;DHT22;35789;48.414;12.768;2023-08-24T16:25:00;27.5;97.9
49901;DHT22;35789;48.414;12.768;2023-08-24T16:30:00;27.4;98.2
49901;DHT22;35789;48.414;12.768;2023-08-24T16:35:00;27.5;97.9
49901;DHT22;35789;48.414;12.768;2023-08-24T16:40:00;27.2;97.6
49901;DHT22;35789;48.414;12.768;2023-08-24T16:45:00;27.1;98.7
49901;DHT22;35789;48.414;12.768;2023-08-24T16:50:01;26.9;98.9
49901;DHT22;35789;48.414;12.768;2023-08-24T16:55:00;27.0;98.3
49901;DHT22;35789;48.414;12.768;2023-08-24T17:00:00;26.8;99.6
49901;DHT22;35789;48.414;12.768;2023-08-24T17:05:01;26.7;99.2
49901;DHT22;35789;48.414;12.768;2023-08-24T17:10:00;26.5;99.9
49901;DHT22;35789;48.414;12.768;2023-08-24T17:15:00;26.2;99.9
49901;DHT22;35789;48.414;12.768;2023-08-24T17:20:00;25.9;99.9
49901;DHT22;35789;48.414;12.768;2023-08-24T17:25:00;25.8;99.9
49901;DHT22;35789;48.414;12.768;2023-08-24T17:30:00;25.8;99.9
49901;DHT22;35789;48.414;12.768;2023-08-24T17:35:00;25.6;99.9
49901;DHT22;35789;48.414;12.768;2023-08-24T17:40:00;25.5;99.9
49901;DHT22;35789;48.414;12.768;2023-08-24T17:45:00;25.4;99.9
49901;DHT22;35789;48.414;12.768;2023-08-24T17:50:00;25.2;99.9
49901;DHT22;35789;48.414;12.768;2023-08-24T17:55:00;25.0;99.9
49901;DHT22;35789;48.414;12.768;2023-08-24T18:00:00;24.9;99.9
49901;DHT22;35789;48.414;12.768;2023-08-24T18:05:00;24.8;99.9
49901;DHT22;35789;48.414;12.768;2023-08-24T18:10:00;24.7;99.9
49901;DHT22;35789;48.414;12.768;2023-08-24T18:15:00;24.6;99.9
49901;DHT22;35789;48.414;12.768;2023-08-24T18:20:00;24.5;99.9
49901;DHT22;35789;48.414;12.768;2023-08-24T18:25:00;24.4;99.9
49901;DHT22;35789;48.414;12.768;2023-08-24T18:30:00;24.3;99.9
49901;DHT22;35789;48.414;12.768;2023-08-24T18:35:00;24.1;99.9
49901;DHT22;35789;48.414;12.768;2023-08-24T18:40:00;24.1;99.9
49901;DHT22;35789;48.414;12.768;2023-08-24T18:45:00;24.0;99.9
49901;DHT22;35789;48.414;12.768;2023-08-24T18:50:00;24.0;99.9
49901;DHT22;35789;48.414;12.768;2023-08-24T18:55:00;23.9;99.9
49901;DHT22;35789;48.414;12.768;2023-08-24T19:00:00;23.8;99.9
49901;DHT22;35789;48.414;12.768;2023-08-24T19:05:00;23.7;99.9
49901;DHT22;35789;48.414;12.768;2023-08-24T19:10:00;23.7;99.9
49901;DHT22;35789;48.414;12.768;2023-08-24T19:15:00;23.6;99.9
49901;DHT22;35789;48.414;12.768;2023-08-24T19:20:00;23.4;99.9
49901;DHT22;35789;48.414;12.768;2023-08-24T19:25:00;23.4;99.9
49901;DHT22;35789;48.414;12.768;2023-08-24T19:30:00;23.4;99.9
49901;DHT22;35789;48.414;12.768;2023-08-24T19:35:00;23.4;99.9
49901;DHT22;35789;48.414;12.768;2023-08-24T19:40:00;23.3;99.9
49901;DHT22;35789;48.414;12.768;2023-08-24T19:45:00;23.3;99.9
49901;DHT22;35789;48.414;12.768;2023-08-24T19:50:00;23.2;99.9
49901;DHT22;35789;48.414;12.768;2023-08-24T19:55:00;23.1;99.9
49901;DHT22;35789;48.414;12.768;2023-08-24T20:00:00;23.2;99.9
49901;DHT22;35789;48.414;12.768;2023-08-24T20:05:00;23.2;99.9
49901;DHT22;35789;48.414;12.768;2023-08-24T20:10:00;23.2;99.9
49901;DHT22;35789;48.414;12.768;2023-08-24T20:15:00;23.3;99.9
49901;DHT22;35789;48.414;12.768;2023-08-24T20:20:00;23.2;99.9
49901;DHT22;35789;48.414;12.768;2023-08-24T20:25:00;23.1;99.9
49901;DHT22;35789;48.414;12.768;2023-08-24T20:30:00;23.0;99.9
49901;DHT22;35789;48.414;12.768;2023-08-24T20:35:00;22.9;99.9
49901;DHT22;35789;48.414;12.768;2023-08-24T20:40:00;22.8;99.9
49901;DHT22;35789;48.414;12.768;2023-08-24T20:45:00;22.7;99.9
49901;DHT22;35789;48.414;12.768;2023-08-24T20:50:00;22.6;99.9
49901;DHT22;35789;48.414;12.768;2023-08-24T20:55:00;22.5;99.9
49901;DHT22;35789;48.414;12.768;2023-08-24T21:00:00;22.4;99.9
49901;DHT22;35789;48.414;12.768;2023-08-24T21:05:00;22.4;99.9
49901;DHT22;35789;48.414;12.768;2023-08-24T21:10:00;22.3;99.9
49901;DHT22;35789;48.414;12.768;2023-08-24T21:15:00;22.4;99.9
49901;DHT22;35789;48.414;12.768;2023-08-24T21:20:00;22.3;99.9
49901;DHT22;35789;48.414;12.768;2023-08-24T21:25:00;22.3;99.9
49901;DHT22;35789;48.414;12.768;2023-08-24T21:30:00;22.3;99.9
49901;DHT22;35789;48.414;12.768;2023-08-24T21:35:00;22.3;99.9
49901;DHT22;35789;48.414;12.768;2023-08-24T21:40:00;22.8;99.9
49901;DHT22;35789;48.414;12.768;2023-08-24T21:45:00;23.1;97.9
49901;DHT22;35789;48.414;12.768;2023-08-24T21:50:00;22.7;97.7
49901;DHT22;35789;48.414;12.768;2023-08-24T21:55:00;21.8;99.9
49901;DHT22;35789;48.414;12.768;2023-08-24T22:00:00;21.5;99.9
49901;DHT22;35789;48.414;12.768;2023-08-24T22:05:00;20.8;99.9
49901;DHT22;35789;48.414;12.768;2023-08-24T22:10:00;20.4;99.9
49901;DHT22;35789;48.414;12.768;2023-08-24T22:15:00;19.8;99.9
49901;DHT22;35789;48.414;12.768;2023-08-24T22:20:00;19.4;99.9
49901;DHT22;35789;48.414;12.768;2023-08-24T22:25:00;19.5;99.9
49901;DHT22;35789;48.414;12.768;2023-08-24T22:30:00;19.4;99.9
49901;DHT22;35789;48.414;12.768;2023-08-24T22:35:00;19.4;99.9
49901;DHT22;35789;48.414;12.768;2023-08-24T22:40:00;19.3;99.9
49901;DHT22;35789;48.414;12.768;2023-08-24T22:45:04;19.4;99.9
49901;DHT22;35789;48.414;12.768;2023-08-24T22:50:01;19.5;99.9
49901;DHT22;35789;48.414;12.768;2023-08-24T22:55:00;19.4;99.9
49901;DHT22;35789;48.414;12.768;2023-08-24T23:00:00;19.3;99.9
49901;DHT22;35789;48.414;12.768;2023-08-24T23:05:00;19.3;99.9
49901;DHT22;35789;48.414;12.768;2023-08-24T23:10:00;19.3;99.9
49901;DHT22;35789;48.414;12.768;2023-08-24T23:15:00;19.3;99.9
49901;DHT22;35789;48.414;12.768;2023-08-24T23:20:00;19.2;99.9
49901;DHT22;35789;48.414;12.768;2023-08-24T23:25:00;19.1;99.9
49901;DHT22;35789;48.414;12.768;2023-08-24T23:30:00;19.1;99.9
49901;DHT22;35789;48.414;12.768;2023-08-24T23:35:00;19.1;99.9
49901;DHT22;35789;48.414;12.768;2023-08-24T23:40:00;19.1;99.9
49901;DHT22;35789;48.414;12.768;2023-08-24T23:45:00;19.1;99.9
49901;DHT22;35789;48.414;12.768;2023-08-24T23:50:00;19.1;99.9
49901;DHT22;35789;48.414;12.768;2023-08-24T23:55:00;19.1;99.9
